BA575 / G-EUUD 7700 Squawk Report (15th of June, 2019)

Aircraft A320 Reg No. G-EUUD Age 17 years old
Model A320 Jet engines 2 First flight 15-03-02
Registered 29-04-02 Rollout 03-02 Delivered 29-04-02
Construction No. 1760 Line No. N/A Series 232
ADSHEX 40097F Airline name British Airways Owner N/A
Airfield based Heathrow~Gtr London~G First tracked 2017-07-13 09:53:00

Flight history for G-EUUD

Route Flight No Date Playback
Heathrow (LHR) - Glasgow (GLA) BA1496 2019-07-23 21:51:00
Valencia (VLC) - Heathrow (LHR) BA445 2019-07-23 20:45:00
Heathrow (LHR) - Valencia (VLC) BA422 2019-07-23 17:39:00
Geneve Cointrin (GVA) - Heathrow (LHR) BA729 2019-07-23 14:17:00
Heathrow (LHR) - Geneve Cointrin (GVA) BA728 2019-07-23 10:17:00
Copenhagen Airport (CPH) - Heathrow (LHR) BA811 2019-07-23 07:32:00
Heathrow (LHR) - Copenhagen Airport (CPH) BA822 2019-07-23 05:34:00
Hamburg (HAM) - Heathrow (LHR) BA975 2019-07-22 17:58:00
Heathrow (LHR) - Hamburg (HAM) BA974 2019-07-22 14:09:00
Tegel (TXL) - Heathrow (LHR) BA991 2019-07-22 12:32:00
Heathrow (LHR) - Tegel (TXL) BA990 2019-07-22 08:47:00
Arlanda (ARN) - Heathrow (LHR) BA783 2019-07-21 21:49:00
Heathrow (LHR) - Arlanda (ARN) BA782 2019-07-21 18:37:00
Geneve Cointrin (GVA) - Heathrow (LHR) BA731 2019-07-21 16:02:00
Heathrow (LHR) - Geneve Cointrin (GVA) BA730 2019-07-21 12:28:00
Dublin (DUB) - Heathrow (LHR) BA833 2019-07-21 09:20:00
Heathrow (LHR) - Dublin (DUB) BA832 2019-07-21 07:12:00
Son Sant Joan (PMI) - Heathrow (LHR) BA513 2019-07-21 06:10:00
Heathrow (LHR) - Son Sant Joan (PMI) BA512 2019-07-20 17:18:00
Glasgow (GLA) - Heathrow (LHR) BA1483 2019-07-20 13:48:00
Time Lat Lon Altitude Heading Speed Vertical Rate
2019-06-15 15:39:30 GMT 51.469936 -0.486393 0 270 5 0
2019-06-15 15:39:13 GMT 51.469986 -0.486423 0 270 5 0
2019-06-15 15:38:48 GMT 51.469894 -0.486349 0 270 5 0
We lost coverage of the aircraft here for a total of 26 minutes
2019-06-15 15:12:44 GMT 51.469063 -0.484695 0 270 5 0
2019-06-15 15:12:44 GMT 51.469063 -0.484695 0 0 10 0
2019-06-15 15:12:06 GMT 51.467628 -0.484697 0 0 10 0
2019-06-15 15:11:56 GMT 51.467182 -0.484716 0 0 10 0
2019-06-15 15:11:52 GMT 51.467010 -0.484716 0 0 11 0
2019-06-15 15:11:42 GMT 51.466572 -0.484390 0 292 11 0
2019-06-15 15:11:25 GMT 51.466537 -0.482521 0 270 23 0
2019-06-15 15:11:21 GMT 51.466541 -0.480318 0 270 23 0
2019-06-15 15:11:12 GMT 51.466541 -0.480318 0 270 21 0
2019-06-15 15:11:03 GMT 51.466537 -0.478840 0 270 19 0
2019-06-15 15:10:52 GMT 51.466553 -0.476439 0 270 16 0
2019-06-15 15:10:41 GMT 51.466553 -0.476439 0 270 14 0
2019-06-15 15:10:32 GMT 51.466560 -0.475426 0 270 19 0
2019-06-15 15:10:21 GMT 51.466560 -0.473995 0 270 17 0
2019-06-15 15:10:11 GMT 51.466564 -0.472783 0 270 15 0
2019-06-15 15:10:01 GMT 51.466564 -0.471763 0 270 12 0
2019-06-15 15:09:51 GMT 51.466572 -0.471020 0 270 9 0
2019-06-15 15:09:28 GMT 51.466583 -0.469437 0 267 14 0
2019-06-15 15:09:15 GMT 51.466209 -0.468608 0 0 14 0
2019-06-15 15:08:54 GMT 51.465057 -0.465641 0 284 48 0
2019-06-15 15:08:48 GMT 51.464882 -0.463727 0 272 56 0
2019-06-15 15:08:25 GMT 51.464893 -0.451757 0 270 88 0
2019-06-15 15:07:02 GMT 51.465221 -0.345383 850 270 142 -576
2019-06-15 15:06:46 GMT 51.465313 -0.294266 850 271 154 -576
2019-06-15 15:06:18 GMT 51.465313 -0.294266 1,775 270 156 -896
2019-06-15 15:05:48 GMT 51.465317 -0.294924 1,750 271 154 0
2019-06-15 15:04:42 GMT 51.431625 -0.355571 2,675 271 145 -832
2019-06-15 15:03:00 GMT 51.465088 -0.098803 3,775 273 167 -896
2019-06-15 15:02:55 GMT 51.465088 -0.098803 4,175 274 171 -832
2019-06-15 15:02:41 GMT 51.464523 -0.081329 4,375 88 206 -832
We lost coverage of the aircraft here for a total of 6 minutes
2019-06-15 14:56:24 GMT 51.334736 -0.139084 10,625 270 239 -768
2019-06-15 14:56:19 GMT 51.334736 -0.138397 10,625 270 239 -832
2019-06-15 14:56:08 GMT 51.334869 -0.120662 10,775 270 230 -768
We lost coverage of the aircraft here for a total of 8 minutes
2019-06-15 14:47:56 GMT 51.259460 -0.034221 13,275 317 403 -832
2019-06-15 14:47:27 GMT 51.256527 0.148468 12,950 122 271 -832
2019-06-15 14:47:57 GMT 51.259460 -0.034221 12,950 122 271 -768
2019-06-15 14:47:27 GMT 51.256527 0.148468 15,650 317 351 -640
2019-06-15 14:46:49 GMT 51.202621 0.230865 16,025 317 408 -768
2019-06-15 14:46:42 GMT 51.195499 0.240479 17,075 317 408 -832
2019-06-15 14:46:32 GMT 51.182415 0.261688 17,075 317 403 -704
2019-06-15 14:45:33 GMT 51.107700 0.375900 17,100 317 408 -832
2019-06-15 14:45:24 GMT 51.089405 0.404282 23,100 319 482 -704
2019-06-15 14:45:10 GMT 51.071388 0.432281 17,650 319 448 -576
2019-06-15 14:45:01 GMT 51.057796 0.454025 18,075 319 448 -576
2019-06-15 14:44:48 GMT 51.041504 0.481262 17,650 315 434 -704
2019-06-15 14:44:42 GMT 51.018414 0.519409 17,775 319 448 -832
2019-06-15 14:44:32 GMT 51.018414 0.519409 17,825 319 448 -832
2019-06-15 14:44:19 GMT 51.002213 0.549698 25,000 319 484 -768
2019-06-15 14:44:14 GMT 50.991783 0.564880 23,100 319 482 -960
2019-06-15 14:44:03 GMT 50.978191 0.584869 19,050 319 485 -1024
2019-06-15 14:43:57 GMT 50.967484 0.600281 21,400 319 448 -576
2019-06-15 14:43:50 GMT 50.958408 0.612564 18,075 319 456 -832
2019-06-15 14:43:40 GMT 50.942719 0.634995 18,300 319 465 -960
2019-06-15 14:43:34 GMT 50.932804 0.649567 18,225 319 451 -1088
2019-06-15 14:43:28 GMT 50.921490 0.665131 18,050 319 465 -960
2019-06-15 14:43:18 GMT 50.907108 0.685730 22,400 318 465 -960
2019-06-15 14:43:11 GMT 50.897610 0.698929 19,050 319 482 -1024
2019-06-15 14:43:02 GMT 50.881596 0.721283 18,875 319 457 -576
2019-06-15 14:42:55 GMT 50.872284 0.734406 19,075 319 457 0
2019-06-15 14:42:49 GMT 50.862091 0.749512 19,050 319 463 -1024
2019-06-15 14:42:39 GMT 50.847706 0.769806 19,050 319 463 -1024
2019-06-15 14:42:30 GMT 50.831783 0.792236 19,050 319 465 -960
2019-06-15 14:42:20 GMT 50.815399 0.814667 19,150 320 463 -1920
2019-06-15 14:42:13 GMT 50.805809 0.828018 19,225 319 462 -2560
2019-06-15 14:42:07 GMT 50.795708 0.840988 22,850 319 481 -1024
2019-06-15 14:42:01 GMT 50.783508 0.853882 19,300 319 484 -896
2019-06-15 14:41:51 GMT 50.766983 0.872574 21,350 319 463 -1024
2019-06-15 14:41:38 GMT 50.747387 0.902328 21,350 316 463 -384
2019-06-15 14:41:26 GMT 50.728298 0.930405 21,400 318 465 -1024
2019-06-15 14:39:52 GMT 50.564342 1.162992 21,400 319 463 -896
2019-06-15 14:39:38 GMT 50.564342 1.162992 22,450 319 465 -960
2019-06-15 14:38:32 GMT 50.432739 1.199885 22,625 319 482 -1280
2019-06-15 14:37:46 GMT 50.378128 1.418682 23,875 319 478 -2624
2019-06-15 14:37:42 GMT 50.371384 1.427851 24,400 319 482 -3840
2019-06-15 14:37:32 GMT 50.352951 1.452942 23,875 319 481 -3008
2019-06-15 14:37:24 GMT 50.340843 1.469421 24,400 319 479 -3456
2019-06-15 14:37:08 GMT 50.313705 1.506389 26,175 319 477 -4800
2019-06-15 14:37:05 GMT 50.306717 1.515896 26,225 319 476 -4608
2019-06-15 14:37:02 GMT 50.297737 1.528139 26,300 319 475 -4096
2019-06-15 14:36:55 GMT 50.291779 1.536230 26,600 319 474 -3648
2019-06-15 14:36:51 GMT 50.284836 1.545675 26,600 319 474 -3584
2019-06-15 14:36:48 GMT 50.279259 1.553303 26,775 319 474 -3648
2019-06-15 14:36:45 GMT 50.265747 1.571695 27,025 319 472 -3456
2019-06-15 14:36:40 GMT 50.265747 1.571695 27,625 320 471 -1984
2019-06-15 14:36:37 GMT 50.262451 1.576177 27,325 319 472 -2944
2019-06-15 14:36:34 GMT 50.257519 1.582848 27,550 320 471 -2496
2019-06-15 14:36:31 GMT 50.245693 1.598882 27,850 320 474 -64
2019-06-15 14:36:28 GMT 50.245693 1.598882 27,825 320 472 -1216
2019-06-15 14:36:25 GMT 50.241688 1.604227 27,850 320 472 -960
2019-06-15 14:36:20 GMT 50.234428 1.614099 27,875 319 475 -64
2019-06-15 14:36:00 GMT 50.201000 1.659307 28,000 319 477 -64
2019-06-15 14:35:36 GMT 50.160919 1.713578 28,000 320 476 -128
2019-06-15 14:35:24 GMT 50.138996 1.743189 28,000 320 476 -128
2019-06-15 14:35:21 GMT 50.136017 1.747188 28,025 320 476 -128
2019-06-15 14:35:18 GMT 50.131348 1.753476 28,025 320 477 -64
2019-06-15 14:35:14 GMT 50.124664 1.762438 28,025 320 477 -64
2019-06-15 14:35:11 GMT 50.118374 1.770952 28,025 320 477 -64
2019-06-15 14:35:08 GMT 50.113358 1.777689 28,025 319 479 -64
2019-06-15 14:35:03 GMT 50.104660 1.789398 28,025 320 479 -64
2019-06-15 14:34:58 GMT 50.098309 1.797972 28,025 305 474 64
2019-06-15 14:34:54 GMT 50.090607 1.808335 28,050 320 480 -64
2019-06-15 14:34:51 GMT 50.084248 1.816901 28,050 320 481 -64
2019-06-15 14:34:45 GMT 50.076893 1.826848 28,050 320 482 -64
2019-06-15 14:34:42 GMT 50.065063 1.842740 28,050 320 482 0
2019-06-15 14:34:36 GMT 50.059345 1.850454 28,050 320 484 128
2019-06-15 14:34:11 GMT 50.020477 1.904899 28,025 314 482 0
2019-06-15 14:34:00 GMT 50.002502 1.939607 28,025 289 461 -64
2019-06-15 14:33:48 GMT 49.990818 1.969745 28,000 298 469 0
2019-06-15 14:33:35 GMT 49.978180 2.014401 28,000 287 459 -64
2019-06-15 14:33:27 GMT 49.974289 2.033844 28,000 286 458 0
2019-06-15 14:33:23 GMT 49.972000 2.046493 28,000 286 458 0
2019-06-15 14:33:17 GMT 49.963989 2.092100 28,000 286 458 -64
2019-06-15 14:33:11 GMT 49.963989 2.092100 28,000 286 458 0
2019-06-15 14:33:07 GMT 49.962749 2.099131 28,000 286 459 -64
2019-06-15 14:33:02 GMT 49.957764 2.127661 28,000 286 458 64
2019-06-15 14:32:58 GMT 49.957764 2.127661 28,000 286 458 0
2019-06-15 14:32:55 GMT 49.956436 2.135251 28,000 286 458 0
2019-06-15 14:32:50 GMT 49.953552 2.151730 28,000 294 464 0
2019-06-15 14:32:47 GMT 49.951435 2.163787 28,000 286 460 -64
2019-06-15 14:32:35 GMT 49.944763 2.198567 28,000 314 476 -64
2019-06-15 14:32:24 GMT 49.935104 2.234778 28,000 304 474 -64
2019-06-15 14:32:18 GMT 49.929382 2.251258 28,000 301 468 64
2019-06-15 14:32:13 GMT 49.924389 2.263852 28,000 304 474 -64
2019-06-15 14:32:07 GMT 49.916428 2.281542 28,000 308 474 -64
2019-06-15 14:31:59 GMT 49.905537 2.302007 28,000 313 477 -64
2019-06-15 14:31:55 GMT 49.898972 2.313067 28,000 314 477 0
2019-06-15 14:31:51 GMT 49.893860 2.321512 28,000 314 476 0
2019-06-15 14:31:48 GMT 49.889008 2.329463 28,000 314 476 0
2019-06-15 14:31:43 GMT 49.880257 2.343948 28,000 314 477 -64
2019-06-15 14:31:39 GMT 49.875732 2.351363 28,000 314 477 -64
2019-06-15 14:31:36 GMT 49.869095 2.362350 28,000 314 477 -64
2019-06-15 14:31:32 GMT 49.859730 2.377723 28,000 314 477 -64
2019-06-15 14:31:23 GMT 49.849182 2.395164 28,025 314 478 -128
2019-06-15 14:31:18 GMT 49.843735 2.404127 28,025 314 477 -64
2019-06-15 14:31:12 GMT 49.828304 2.429463 28,025 314 478 0
2019-06-15 14:31:01 GMT 49.817413 2.447427 28,025 314 478 0
2019-06-15 14:30:58 GMT 49.812881 2.454866 28,025 314 478 0
2019-06-15 14:30:51 GMT 49.801025 2.474225 28,025 314 479 64
2019-06-15 14:30:48 GMT 49.798279 2.478718 28,025 314 479 128
2019-06-15 14:30:45 GMT 49.786453 2.498202 28,000 314 480 128
2019-06-15 14:30:34 GMT 49.777004 2.513642 28,000 314 481 64
2019-06-15 14:30:28 GMT 49.766968 2.530180 28,000 314 481 64
2019-06-15 14:30:15 GMT 49.747421 2.562200 27,975 313 484 0
2019-06-15 14:30:09 GMT 49.738861 2.576222 27,975 314 481 64
2019-06-15 14:30:06 GMT 49.725449 2.598122 27,975 314 481 64
2019-06-15 14:30:01 GMT 49.725449 2.598122 27,975 314 481 64
2019-06-15 14:29:57 GMT 49.720551 2.606145 27,975 314 481 0
2019-06-15 14:29:53 GMT 49.711693 2.620536 27,975 314 481 0
2019-06-15 14:29:50 GMT 49.709270 2.624545 27,975 314 481 0
2019-06-15 14:29:46 GMT 49.702240 2.635996 27,975 314 481 0
2019-06-15 14:29:37 GMT 49.689114 2.657429 27,975 314 481 -64
2019-06-15 14:29:32 GMT 49.675659 2.679402 27,975 314 481 -64
2019-06-15 14:29:28 GMT 49.675659 2.679402 27,975 314 481 -64
2019-06-15 14:29:20 GMT 49.661682 2.702348 27,975 314 481 0
2019-06-15 14:29:16 GMT 49.658020 2.708274 27,975 313 484 0
2019-06-15 14:27:25 GMT 49.477112 2.899017 28,025 313 487 64
2019-06-15 14:25:21 GMT 49.290020 3.305873 27,800 327 503 -64
2019-06-15 14:25:08 GMT 49.265118 3.331821 27,975 327 495 -64
2019-06-15 14:25:02 GMT 49.253479 3.343819 27,725 327 504 -192
2019-06-15 14:24:51 GMT 49.227501 3.370128 28,025 327 493 128
2019-06-15 14:24:40 GMT 49.209206 3.388704 27,975 327 495 0
2019-06-15 14:24:27 GMT 49.185883 3.412411 27,975 327 495 0
2019-06-15 14:24:21 GMT 49.172478 3.426000 28,025 327 496 128
2019-06-15 14:24:08 GMT 49.147480 3.451297 27,975 327 495 0
2019-06-15 14:22:32 GMT 48.972382 3.625629 27,975 327 495 -64
2019-06-15 14:19:42 GMT 48.677162 3.985796 28,000 302 468 0
2019-06-15 14:19:35 GMT 48.490112 4.433778 28,025 303 470 -64
2019-06-15 14:17:00 GMT 48.490112 4.433778 28,000 303 474 0
2019-06-15 14:16:49 GMT 48.430714 4.574360 28,000 303 473 0
2019-06-15 14:16:10 GMT 48.430714 4.574360 28,000 303 473 0
2019-06-15 14:16:05 GMT 48.426010 4.585419 28,000 303 473 0
2019-06-15 14:15:53 GMT 48.412125 4.618061 28,000 303 473 0
2019-06-15 14:15:44 GMT 48.400314 4.645771 28,000 303 473 0
2019-06-15 14:15:34 GMT 48.389980 4.670057 28,000 303 473 0
2019-06-15 14:15:13 GMT 48.362423 4.734818 28,000 303 473 -64
2019-06-15 14:15:03 GMT 48.353111 4.756357 28,000 303 478 0
2019-06-15 14:14:53 GMT 48.340805 4.785673 28,000 303 473 0
2019-06-15 14:10:19 GMT 48.008148 5.554482 31,875 304 489 -832
2019-06-15 14:10:16 GMT 48.003410 5.565209 31,925 304 490 -640
2019-06-15 14:10:09 GMT 47.995422 5.583252 32,000 304 493 -192
2019-06-15 14:09:58 GMT 47.982647 5.612183 32,025 304 493 -64
2019-06-15 14:09:53 GMT 47.975876 5.627541 32,025 303 499 0
2019-06-15 14:09:47 GMT 47.968636 5.644015 32,025 304 494 -64
2019-06-15 14:09:20 GMT 47.934265 5.721954 32,025 304 495 0
2019-06-15 14:08:55 GMT 47.903370 5.791837 32,000 304 495 0
2019-06-15 14:08:26 GMT 47.861755 5.843491 32,000 304 496 -64
2019-06-15 14:08:13 GMT 47.849834 5.912476 32,000 304 497 0
2019-06-15 14:08:00 GMT 47.834381 5.947195 32,000 304 497 -64
2019-06-15 14:07:54 GMT 47.824791 5.968816 32,000 304 497 -64
2019-06-15 14:07:51 GMT 47.821716 5.975647 32,000 304 497 0
2019-06-15 14:07:44 GMT 47.813873 5.993248 32,000 304 497 -64
2019-06-15 14:07:41 GMT 47.805470 6.011986 32,000 304 497 0
2019-06-15 14:07:38 GMT 47.805470 6.011986 32,000 304 497 0
2019-06-15 14:07:32 GMT 47.797119 6.030739 32,000 304 497 0
2019-06-15 14:07:26 GMT 47.790482 6.045502 32,000 304 496 -64
2019-06-15 14:07:22 GMT 47.785400 6.056900 32,000 304 496 -64
2019-06-15 14:07:19 GMT 47.782379 6.063698 32,000 304 496 0
2019-06-15 14:07:15 GMT 47.776375 6.077411 32,000 302 495 -64
2019-06-15 14:07:07 GMT 47.766357 6.102356 32,000 298 489 -64
2019-06-15 14:07:04 GMT 47.763107 6.111215 32,000 298 489 -64
2019-06-15 14:06:59 GMT 47.758759 6.123711 32,000 297 487 0
2019-06-15 14:06:56 GMT 47.756378 6.130920 32,000 296 486 0
2019-06-15 14:06:52 GMT 47.751469 6.146639 32,000 293 481 0
2019-06-15 14:06:48 GMT 47.749054 6.155159 32,000 286 474 0
2019-06-15 14:06:45 GMT 47.745232 6.169246 32,000 292 480 0
2019-06-15 14:06:42 GMT 47.743835 6.174728 32,000 291 479 0
2019-06-15 14:06:39 GMT 47.740860 6.187088 32,000 289 477 64
2019-06-15 14:06:32 GMT 47.737038 6.204458 32,000 287 476 0
2019-06-15 14:06:28 GMT 47.733780 6.220727 32,000 286 475 -64
2019-06-15 14:06:25 GMT 47.732483 6.227600 32,000 286 474 0
2019-06-15 14:06:21 GMT 47.730423 6.238930 32,000 286 474 -64
2019-06-15 14:06:18 GMT 47.728008 6.252066 32,000 286 474 -64
2019-06-15 14:06:15 GMT 47.726379 6.260869 32,000 286 473 0
2019-06-15 14:06:08 GMT 47.722137 6.284042 32,000 286 473 0
2019-06-15 14:06:05 GMT 47.720993 6.290291 32,000 286 473 0
2019-06-15 14:06:01 GMT 47.718838 6.302209 32,000 286 473 0
2019-06-15 14:05:57 GMT 47.716511 6.314674 32,000 286 473 0
2019-06-15 14:05:54 GMT 47.714813 6.324074 32,000 286 473 0
2019-06-15 14:05:51 GMT 47.713062 6.333477 32,000 286 473 0
2019-06-15 14:05:48 GMT 47.711105 6.344055 32,000 286 473 0
2019-06-15 14:05:45 GMT 47.709389 6.353478 32,000 286 474 0
2019-06-15 14:05:42 GMT 47.707397 6.364105 32,000 286 474 0
2019-06-15 14:05:39 GMT 47.706127 6.371014 32,000 286 474 0
2019-06-15 14:05:35 GMT 47.704033 6.382282 32,000 286 475 0
2019-06-15 14:05:32 GMT 47.701797 6.394184 32,000 286 475 0
2019-06-15 14:05:29 GMT 47.700542 6.401085 32,000 286 475 -64
2019-06-15 14:05:25 GMT 47.697876 6.415466 32,000 286 475 0
2019-06-15 14:05:22 GMT 47.695999 6.425491 32,000 286 475 0
2019-06-15 14:05:19 GMT 47.691929 6.447425 32,000 286 475 -64
2019-06-15 14:05:15 GMT 47.691929 6.447425 32,000 286 475 0
2019-06-15 14:05:11 GMT 47.689728 6.459343 32,000 286 475 0
2019-06-15 14:05:08 GMT 47.687851 6.469368 32,000 286 476 0
2019-06-15 14:05:05 GMT 47.685745 6.480698 32,000 286 476 0
2019-06-15 14:05:02 GMT 47.684326 6.488251 32,000 286 476 0
2019-06-15 14:04:58 GMT 47.682037 6.500816 32,000 286 476 -64
2019-06-15 14:04:55 GMT 47.680389 6.509605 32,000 286 476 -64
2019-06-15 14:04:50 GMT 47.677368 6.526016 32,000 286 477 0
2019-06-15 14:04:47 GMT 47.675949 6.533569 32,000 286 477 0
2019-06-15 14:04:44 GMT 47.673729 6.545528 32,000 286 477 -64
2019-06-15 14:04:40 GMT 47.671509 6.557396 32,000 286 475 -64
2019-06-15 14:04:37 GMT 47.669769 6.566866 32,000 286 475 -64
2019-06-15 14:04:33 GMT 47.667210 6.580670 32,000 286 475 0
2019-06-15 14:04:29 GMT 47.664505 6.595024 32,000 286 475 0
2019-06-15 14:04:25 GMT 47.660797 6.615074 32,000 286 474 0
2019-06-15 14:04:22 GMT 47.660797 6.615074 32,000 286 474 -64
2019-06-15 14:04:19 GMT 47.656815 6.636292 32,000 286 474 0
2019-06-15 14:04:16 GMT 47.656815 6.636292 32,000 286 475 -64
2019-06-15 14:04:13 GMT 47.655293 6.644475 32,000 286 475 0
2019-06-15 14:04:10 GMT 47.654251 6.650093 32,000 286 475 0
2019-06-15 14:04:07 GMT 47.652145 6.661354 32,000 286 475 0
2019-06-15 14:04:04 GMT 47.650040 6.672615 32,000 286 475 0
2019-06-15 14:04:01 GMT 47.648392 6.681335 32,000 286 475 0
2019-06-15 14:03:57 GMT 47.646011 6.693901 32,000 286 475 0
2019-06-15 14:03:54 GMT 47.644638 6.701385 32,000 286 475 0
2019-06-15 14:03:50 GMT 47.640488 6.723351 32,000 286 475 0
2019-06-15 14:03:47 GMT 47.638962 6.731461 32,000 286 475 0
2019-06-15 14:03:44 GMT 47.638962 6.731461 32,000 286 475 0
2019-06-15 14:03:41 GMT 47.636581 6.743958 32,000 286 475 0
2019-06-15 14:03:38 GMT 47.635555 6.749620 32,000 286 475 0
2019-06-15 14:03:34 GMT 47.632252 6.767156 32,000 286 475 -64
2019-06-15 14:03:29 GMT 47.627735 6.790959 32,000 286 475 -64
2019-06-15 14:03:26 GMT 47.627735 6.790959 32,000 286 475 -64
2019-06-15 14:03:23 GMT 47.626339 6.798424 32,000 286 475 -64
2019-06-15 14:03:20 GMT 47.624893 6.805960 32,000 286 474 -64
2019-06-15 14:03:17 GMT 47.620659 6.828425 32,000 286 474 0
2019-06-15 14:03:13 GMT 47.620659 6.828425 32,000 286 474 0
2019-06-15 14:03:10 GMT 47.616531 6.850319 32,000 286 474 -64
2019-06-15 14:03:04 GMT 47.613583 6.865892 32,000 286 474 0
2019-06-15 14:02:58 GMT 47.611084 6.879021 32,000 286 474 -64
2019-06-15 14:02:53 GMT 47.608017 6.895294 32,000 286 475 -64
2019-06-15 14:02:49 GMT 47.606323 6.904015 32,000 286 475 -64
2019-06-15 14:02:46 GMT 47.604904 6.911568 32,000 286 475 0
2019-06-15 14:02:42 GMT 47.602177 6.925894 32,000 286 475 0
2019-06-15 14:02:39 GMT 47.600418 6.935326 32,000 286 475 0
2019-06-15 14:02:35 GMT 47.598038 6.947823 32,000 286 475 0
2019-06-15 14:02:32 GMT 47.596115 6.957848 32,000 286 476 0
2019-06-15 14:02:29 GMT 47.594078 6.968501 32,000 286 476 0
2019-06-15 14:02:25 GMT 47.591469 6.982304 32,000 286 477 0
2019-06-15 14:02:19 GMT 47.588120 6.999840 32,000 286 477 0
2019-06-15 14:02:14 GMT 47.584900 7.016762 32,000 286 476 0
2019-06-15 14:02:11 GMT 47.583206 7.025482 32,000 286 476 0
2019-06-15 14:02:08 GMT 47.581181 7.036109 32,000 286 476 0
2019-06-15 14:02:03 GMT 47.577831 7.053645 32,000 286 476 0
2019-06-15 14:01:59 GMT 47.576153 7.062378 32,000 286 476 0
2019-06-15 14:01:55 GMT 47.573868 7.074234 32,000 286 476 -64
2019-06-15 14:01:52 GMT 47.572174 7.083023 32,000 286 476 -64
2019-06-15 14:01:48 GMT 47.566681 7.111794 32,000 286 475 0
2019-06-15 14:01:44 GMT 47.566681 7.111794 32,000 286 476 0
2019-06-15 14:01:41 GMT 47.565491 7.118042 32,000 286 476 0
2019-06-15 14:01:38 GMT 47.563797 7.126762 32,000 286 475 0
2019-06-15 14:01:32 GMT 47.560043 7.146126 32,000 286 475 -64
2019-06-15 14:01:28 GMT 47.557159 7.161095 32,000 286 475 0
2019-06-15 14:01:23 GMT 47.555008 7.172287 32,000 286 475 0
2019-06-15 14:01:20 GMT 47.552971 7.182946 32,000 286 475 0
2019-06-15 14:01:17 GMT 47.550934 7.193504 32,000 286 474 0
2019-06-15 14:01:14 GMT 47.548874 7.204073 32,000 286 474 0
2019-06-15 14:01:11 GMT 47.547546 7.210945 32,000 286 474 0
2019-06-15 14:01:08 GMT 47.545349 7.222137 32,000 286 475 0
2019-06-15 14:01:05 GMT 47.543800 7.230272 32,000 286 474 0
2019-06-15 14:01:02 GMT 47.542007 7.239578 32,000 287 478 0
2019-06-15 14:00:59 GMT 47.539810 7.250771 32,000 286 475 0
2019-06-15 14:00:56 GMT 47.537888 7.260796 32,000 286 476 0
2019-06-15 14:00:52 GMT 47.535965 7.270752 32,000 286 476 0
2019-06-15 14:00:49 GMT 47.534119 7.280133 32,000 286 476 0
2019-06-15 14:00:46 GMT 47.532578 7.288261 32,000 286 476 0
2019-06-15 14:00:42 GMT 47.529419 7.304466 32,000 286 476 0
2019-06-15 14:00:39 GMT 47.528580 7.308866 32,000 287 476 0
2019-06-15 14:00:36 GMT 47.526623 7.318866 32,000 287 477 0
2019-06-15 14:00:33 GMT 47.524292 7.330765 32,000 287 477 0
2019-06-15 14:00:30 GMT 47.522480 7.340135 32,000 287 477 0
2019-06-15 14:00:27 GMT 47.520905 7.348274 32,000 287 478 -64
2019-06-15 14:00:24 GMT 47.516464 7.370865 32,000 287 478 0
2019-06-15 14:00:21 GMT 47.516464 7.370865 32,000 287 478 0
2019-06-15 14:00:18 GMT 47.515404 7.376545 32,000 287 478 0
2019-06-15 14:00:12 GMT 47.511108 7.398468 32,000 287 478 0
2019-06-15 14:00:08 GMT 47.509369 7.407188 32,000 287 478 -64
2019-06-15 14:00:05 GMT 47.507538 7.416617 32,000 287 478 -64
2019-06-15 14:00:02 GMT 47.505707 7.426003 32,000 287 478 -64
2019-06-15 13:59:59 GMT 47.503052 7.439804 32,000 287 478 -64
2019-06-15 13:59:56 GMT 47.501438 7.447956 32,000 286 477 0
2019-06-15 13:59:51 GMT 47.496506 7.473587 32,000 303 493 0
2019-06-15 13:59:47 GMT 47.496506 7.473587 32,000 287 477 0
2019-06-15 13:59:43 GMT 47.494537 7.483612 32,000 290 480 0
2019-06-15 13:59:40 GMT 47.491608 7.498650 32,000 287 478 0
2019-06-15 13:59:37 GMT 47.490219 7.505493 32,000 287 478 0
2019-06-15 13:59:34 GMT 47.488037 7.516090 32,000 289 479 -64
2019-06-15 13:59:30 GMT 47.485748 7.526691 32,000 288 479 -64
2019-06-15 13:59:27 GMT 47.483688 7.535934 32,000 289 480 0
2019-06-15 13:59:24 GMT 47.481674 7.544655 32,000 289 480 0
2019-06-15 13:59:21 GMT 47.479744 7.552678 32,000 290 480 0
2019-06-15 13:59:18 GMT 47.476868 7.564362 32,000 291 481 0
2019-06-15 13:59:15 GMT 47.474113 7.574721 32,000 294 484 0
2019-06-15 13:59:12 GMT 47.471970 7.582695 32,000 292 482 0
2019-06-15 13:59:09 GMT 47.466896 7.600285 32,000 294 484 0
2019-06-15 13:59:03 GMT 47.464661 7.607539 32,000 295 485 0
2019-06-15 13:59:00 GMT 47.461441 7.617714 32,000 296 487 0
2019-06-15 13:58:57 GMT 47.458515 7.626695 32,000 296 487 0
2019-06-15 13:58:53 GMT 47.454418 7.638526 32,000 298 489 0
2019-06-15 13:58:49 GMT 47.450184 7.650358 32,000 299 489 0
2019-06-15 13:58:46 GMT 47.445808 7.662048 32,000 301 493 0
2019-06-15 13:58:39 GMT 47.437729 7.682327 32,000 302 493 0
2019-06-15 13:58:36 GMT 47.436031 7.686275 32,000 303 493 0
2019-06-15 13:58:21 GMT 47.410812 7.712540 32,000 310 498 0
2019-06-15 13:58:11 GMT 47.402653 7.755784 32,000 314 500 0
2019-06-15 13:57:53 GMT 47.374863 7.802194 32,000 315 502 0
2019-06-15 13:57:49 GMT 47.355881 7.806953 32,000 315 499 0
2019-06-15 13:57:45 GMT 47.355881 7.806953 32,000 315 499 0
2019-06-15 13:57:40 GMT 47.347824 7.819176 32,000 315 499 0
2019-06-15 13:57:32 GMT 47.341206 7.852619 32,000 315 499 0
2019-06-15 13:57:28 GMT 47.333431 7.864169 32,000 315 499 0
2019-06-15 13:57:21 GMT 47.315552 7.867378 32,000 315 499 -64
2019-06-15 13:57:17 GMT 47.302917 7.909607 32,000 315 499 0
2019-06-15 13:57:09 GMT 47.302917 7.909607 32,000 315 499 0
2019-06-15 13:57:06 GMT 47.296749 7.918748 32,000 315 499 0
2019-06-15 13:57:02 GMT 47.291580 7.926495 32,000 315 499 0
2019-06-15 13:56:50 GMT 47.258484 7.976004 32,000 315 496 256
2019-06-15 13:56:43 GMT 47.258484 7.976004 31,975 315 494 0
2019-06-15 13:56:33 GMT 47.244514 7.997976 29,400 316 504 1088
2019-06-15 13:56:24 GMT 47.226688 8.022696 31,975 315 496 256
2019-06-15 13:55:50 GMT 47.167740 8.088135 31,975 316 504 1088
2019-06-15 13:55:32 GMT 47.136097 8.153475 34,550 313 486 64
2019-06-15 13:55:25 GMT 47.124783 8.167067 31,150 311 475 64
2019-06-15 13:54:06 GMT 47.000023 8.335876 29,975 316 502 1536
2019-06-15 13:53:43 GMT 46.962433 8.391151 29,575 316 502 1344
2019-06-15 13:53:16 GMT 46.917297 8.457069 28,900 316 502 1344
2019-06-15 13:53:07 GMT 46.899750 8.482502 28,650 316 502 1728
2019-06-15 13:52:51 GMT 46.884796 8.524017 28,050 316 505 1664
2019-06-15 13:52:45 GMT 46.872890 8.541307 27,500 315 504 1600
2019-06-15 13:52:27 GMT 46.844833 8.582198 27,500 315 504 1152
2019-06-15 13:52:20 GMT 46.820473 8.598175 27,475 316 504 1472
2019-06-15 13:52:17 GMT 46.820473 8.598175 27,500 315 504 1600
2019-06-15 13:52:13 GMT 46.813431 8.608257 27,375 316 504 1536
2019-06-15 13:52:06 GMT 46.802261 8.624603 27,200 316 504 1536
2019-06-15 13:52:00 GMT 46.782349 8.653408 26,975 316 504 1856
2019-06-15 13:51:54 GMT 46.782349 8.653408 26,600 316 504 768
2019-06-15 13:51:43 GMT 46.772102 8.687233 26,600 316 499 1792
2019-06-15 13:51:37 GMT 46.751816 8.697554 26,500 316 501 576
2019-06-15 13:51:33 GMT 46.752972 8.714836 26,475 316 501 832
2019-06-15 13:51:30 GMT 46.749985 8.719125 26,350 316 499 1088
2019-06-15 13:51:27 GMT 46.744404 8.727127 26,325 316 499 960
2019-06-15 13:51:24 GMT 46.739502 8.734265 26,350 316 499 1600
2019-06-15 13:51:21 GMT 46.735233 8.740379 26,175 316 499 1792
2019-06-15 13:51:18 GMT 46.724712 8.755486 26,075 316 499 1792
2019-06-15 13:51:12 GMT 46.719131 8.763539 25,975 316 500 1408
2019-06-15 13:51:09 GMT 46.716194 8.767776 25,775 316 500 1024
2019-06-15 13:51:05 GMT 46.707954 8.779587 25,825 316 499 960
2019-06-15 13:51:02 GMT 46.698738 8.792839 25,775 316 499 896
2019-06-15 13:50:59 GMT 46.698738 8.792839 25,675 316 498 896
2019-06-15 13:50:56 GMT 46.692825 8.801285 25,700 316 498 896
2019-06-15 13:50:53 GMT 46.688915 8.806915 25,675 316 498 896
2019-06-15 13:50:49 GMT 46.676147 8.825237 25,550 316 496 1024
2019-06-15 13:50:43 GMT 46.672897 8.829926 25,500 316 496 1024
2019-06-15 13:50:40 GMT 46.666664 8.838776 25,450 316 494 1088
2019-06-15 13:50:37 GMT 46.663406 8.843445 25,400 316 494 1152
2019-06-15 13:50:34 GMT 46.657539 8.851822 25,325 316 493 1408
2019-06-15 13:50:31 GMT 46.652664 8.858732 25,225 316 493 1472
2019-06-15 13:50:26 GMT 46.644836 8.869919 25,100 316 492 1472
2019-06-15 13:50:23 GMT 46.638683 8.878670 25,050 316 492 1408
2019-06-15 13:50:20 GMT 46.635773 8.882848 25,000 316 491 1280
2019-06-15 13:50:17 GMT 46.629608 8.891647 24,925 316 490 1152
2019-06-15 13:50:10 GMT 46.619320 8.906410 24,825 316 487 960
2019-06-15 13:50:05 GMT 46.611034 8.918358 24,700 316 484 1152
2019-06-15 13:50:01 GMT 46.603043 8.929808 24,600 316 483 1344
2019-06-15 13:49:56 GMT 46.595947 8.939656 24,550 319 484 1408
2019-06-15 13:49:53 GMT 46.590225 8.946922 24,500 320 484 1344
2019-06-15 13:49:50 GMT 46.585987 8.951797 24,400 324 486 1152
2019-06-15 13:49:45 GMT 46.577190 8.960793 24,350 327 487 960
2019-06-15 13:49:42 GMT 46.569855 8.967255 24,275 333 488 704
2019-06-15 13:49:39 GMT 46.564270 8.971543 24,250 334 488 704
2019-06-15 13:49:34 GMT 46.555206 8.977572 24,150 344 490 1152
2019-06-15 13:49:30 GMT 46.546783 8.982328 24,125 342 489 1088
2019-06-15 13:49:22 GMT 46.528564 8.990099 23,975 348 490 1408
2019-06-15 13:49:16 GMT 46.516159 8.993917 23,850 352 490 1344
2019-06-15 13:49:13 GMT 46.509888 8.995458 23,725 354 491 1344
2019-06-15 13:49:10 GMT 46.502701 8.996798 23,650 355 490 1280
2019-06-15 13:49:06 GMT 46.492279 8.998283 23,625 355 490 1216
2019-06-15 13:49:02 GMT 46.485062 8.999245 23,550 355 489 1216
2019-06-15 13:48:59 GMT 46.476963 9.000343 23,375 355 486 1472
2019-06-15 13:48:55 GMT 46.468025 9.001579 23,400 355 487 1408
2019-06-15 13:48:52 GMT 46.461739 9.002403 23,300 355 486 1472
2019-06-15 13:48:49 GMT 46.443420 9.004904 23,025 355 485 1472
2019-06-15 13:48:43 GMT 46.443420 9.004904 23,125 355 484 1472
2019-06-15 13:48:40 GMT 46.432755 9.006310 23,025 355 483 1536
2019-06-15 13:48:35 GMT 46.423428 9.007553 22,900 355 482 1664
2019-06-15 13:48:32 GMT 46.415421 9.008652 22,800 355 481 1664
2019-06-15 13:48:29 GMT 46.410999 9.009270 22,750 355 481 1664
2019-06-15 13:48:24 GMT 46.399502 9.010780 22,625 355 481 1536
2019-06-15 13:48:20 GMT 46.389313 9.012206 22,575 355 480 1472
2019-06-15 13:48:16 GMT 46.382694 9.013046 22,450 355 479 1472
2019-06-15 13:48:12 GMT 46.375168 9.014081 22,275 355 479 1472
2019-06-15 13:48:08 GMT 46.363281 9.015656 22,225 355 478 1408
2019-06-15 13:47:58 GMT 46.343033 9.018333 22,025 355 476 1344
2019-06-15 13:47:55 GMT 46.337772 9.019020 21,975 355 475 1408
2019-06-15 13:47:50 GMT 46.325089 9.020713 21,800 355 473 1408
2019-06-15 13:47:47 GMT 46.319000 9.021517 21,800 355 472 1408
2019-06-15 13:47:44 GMT 46.312042 9.022455 21,650 355 471 1344
2019-06-15 13:47:40 GMT 46.302902 9.023621 21,600 355 470 1280
2019-06-15 13:47:35 GMT 46.292522 9.025063 21,500 355 467 960
2019-06-15 13:47:30 GMT 46.279629 9.026779 21,025 355 432 896
2019-06-15 13:47:24 GMT 46.268967 9.028216 21,350 355 461 768
2019-06-15 13:47:18 GMT 46.255001 9.030075 21,275 355 457 704
2019-06-15 13:47:15 GMT 46.240711 9.031998 21,175 355 453 704
2019-06-15 13:47:06 GMT 46.232849 9.033039 21,150 355 449 640
2019-06-15 13:47:01 GMT 46.218842 9.034915 21,100 355 444 576
2019-06-15 13:46:56 GMT 46.211472 9.035853 21,050 355 440 640
2019-06-15 13:46:53 GMT 46.205376 9.036667 20,725 355 437 704
2019-06-15 13:46:50 GMT 46.198517 9.037595 20,975 355 434 768
2019-06-15 13:46:45 GMT 46.189728 9.038800 20,925 355 433 896
2019-06-15 13:46:42 GMT 46.183365 9.039671 20,825 354 429 1216
2019-06-15 13:46:38 GMT 46.176270 9.040810 20,800 352 425 1920
2019-06-15 13:46:33 GMT 46.164505 9.043021 20,575 351 424 1984
2019-06-15 13:46:24 GMT 46.148300 9.047040 20,250 348 421 2112
2019-06-15 13:46:21 GMT 46.143322 9.048546 20,275 348 420 2112
2019-06-15 13:46:15 GMT 46.131966 9.052185 19,900 347 419 2240
2019-06-15 13:46:10 GMT 46.121395 9.055824 19,875 347 418 2112
2019-06-15 13:46:05 GMT 46.113155 9.058640 19,525 347 415 1728
2019-06-15 13:46:01 GMT 46.103806 9.061778 19,275 347 412 1664
2019-06-15 13:45:54 GMT 46.092636 9.065596 19,375 347 403 2496
2019-06-15 13:45:49 GMT 46.083023 9.068879 19,275 347 407 2112
2019-06-15 13:45:44 GMT 46.072769 9.072362 19,100 347 407 2112
2019-06-15 13:45:38 GMT 46.062183 9.075943 18,875 347 404 2432
2019-06-15 13:45:32 GMT 46.043610 9.082277 18,550 347 403 2496
2019-06-15 13:45:28 GMT 46.043610 9.082277 18,475 347 402 2560
2019-06-15 13:45:23 GMT 46.032761 9.085961 18,200 347 401 2624
2019-06-15 13:45:15 GMT 46.020447 9.090115 17,925 347 400 2496
2019-06-15 13:45:09 GMT 46.008179 9.094268 17,775 347 400 2496
2019-06-15 13:45:04 GMT 46.000641 9.096886 17,500 347 398 2240
2019-06-15 13:45:00 GMT 45.994171 9.099083 17,350 347 395 1984
2019-06-15 13:44:54 GMT 45.979568 9.104049 17,100 347 393 1984
2019-06-15 13:44:51 GMT 45.975311 9.105455 17,025 347 392 1984
2019-06-15 13:44:47 GMT 45.971100 9.106929 16,950 347 391 1984
2019-06-15 13:44:39 GMT 45.957092 9.111685 16,675 347 387 2368
2019-06-15 13:44:36 GMT 45.951855 9.113503 16,550 347 386 2688
2019-06-15 13:44:33 GMT 45.947014 9.115150 16,225 347 385 3008
2019-06-15 13:44:30 GMT 45.939377 9.117691 16,225 347 385 3008
2019-06-15 13:44:26 GMT 45.934845 9.119255 16,075 347 385 3200
2019-06-15 13:44:23 GMT 45.929649 9.120987 15,925 347 386 3328
2019-06-15 13:44:18 GMT 45.919220 9.124489 15,600 347 386 2816
2019-06-15 13:44:15 GMT 45.913284 9.126423 15,425 347 386 2816
2019-06-15 13:44:10 GMT 45.904266 9.129505 15,200 347 385 2496
2019-06-15 13:44:07 GMT 45.894562 9.132787 15,025 347 384 2432
2019-06-15 13:44:03 GMT 45.880783 9.137409 14,875 347 382 2304
2019-06-15 13:43:56 GMT 45.880783 9.137409 14,675 347 378 2432
2019-06-15 13:43:52 GMT 45.875648 9.139114 14,425 347 378 2432
2019-06-15 13:43:49 GMT 45.869843 9.141094 14,425 347 378 2432
2019-06-15 13:43:45 GMT 45.863754 9.143171 14,075 347 374 2688
2019-06-15 13:43:40 GMT 45.855305 9.145981 14,075 347 374 2688
2019-06-15 13:43:35 GMT 45.846554 9.148933 13,850 347 373 2560
2019-06-15 13:43:30 GMT 45.838547 9.151680 13,650 347 370 2368
2019-06-15 13:43:25 GMT 45.827545 9.155363 13,425 347 367 2112
2019-06-15 13:43:18 GMT 45.818016 9.158615 13,200 347 362 2432
2019-06-15 13:43:13 GMT 45.810848 9.161018 12,950 347 360 2624
2019-06-15 13:43:09 GMT 45.803677 9.163422 12,525 347 354 2688
2019-06-15 13:43:03 GMT 45.794357 9.166617 12,575 347 357 3200
2019-06-15 13:42:55 GMT 45.781494 9.170904 12,150 347 356 3392
2019-06-15 13:42:52 GMT 45.776367 9.172646 11,975 347 356 3200
2019-06-15 13:42:47 GMT 45.760059 9.178116 11,500 347 354 2624
2019-06-15 13:42:42 GMT 45.760059 9.178116 11,525 347 352 2432
2019-06-15 13:42:39 GMT 45.753727 9.180244 11,375 347 350 2176
2019-06-15 13:42:35 GMT 45.748047 9.182167 11,150 347 347 1920
2019-06-15 13:42:31 GMT 45.742767 9.183900 11,150 347 344 1600
2019-06-15 13:42:26 GMT 45.731430 9.187729 10,975 347 334 1280
2019-06-15 13:42:20 GMT 45.726028 9.189514 10,900 347 329 1216
2019-06-15 13:42:17 GMT 45.721573 9.191068 10,850 347 325 1152
2019-06-15 13:42:12 GMT 45.714066 9.193614 10,750 347 316 1152
2019-06-15 13:42:09 GMT 45.708107 9.195625 10,675 347 311 1216
2019-06-15 13:42:06 GMT 45.706100 9.196294 10,650 347 310 1280
2019-06-15 13:42:03 GMT 45.702255 9.197633 10,600 347 305 1280
2019-06-15 13:41:59 GMT 45.696808 9.199509 10,525 347 301 1408
2019-06-15 13:41:56 GMT 45.691452 9.201318 10,400 347 293 1920
2019-06-15 13:41:53 GMT 45.688293 9.202390 10,325 347 289 2304
2019-06-15 13:41:47 GMT 45.681015 9.204868 10,100 347 284 2944
2019-06-15 13:41:43 GMT 45.676170 9.206474 10,000 347 284 3072
2019-06-15 13:41:40 GMT 45.669800 9.208620 9,550 347 281 3648
2019-06-15 13:41:36 GMT 45.666779 9.209691 9,550 347 281 3648
2019-06-15 13:41:33 GMT 45.662704 9.211031 9,300 347 280 3712
2019-06-15 13:41:26 GMT 45.652897 9.214371 8,825 347 280 3904
2019-06-15 13:41:23 GMT 45.649868 9.215401 8,675 347 280 4032
2019-06-15 13:41:20 GMT 45.646332 9.216568 8,500 351 283 3968
2019-06-15 13:41:13 GMT 45.637482 9.219606 8,100 347 280 3328
2019-06-15 13:41:06 GMT 45.627247 9.223228 7,600 346 279 3008
2019-06-15 13:41:02 GMT 45.624218 9.224327 7,600 346 279 3008
2019-06-15 13:40:55 GMT 45.614319 9.227846 6,950 350 283 3968
2019-06-15 13:40:52 GMT 45.610996 9.228928 7,025 348 283 3456
2019-06-15 13:40:47 GMT 45.604568 9.230860 6,750 351 283 3968
2019-06-15 13:40:44 GMT 45.601456 9.231530 6,575 354 284 3712
2019-06-15 13:40:41 GMT 45.596741 9.231932 6,450 358 284 3584
2019-06-15 13:40:34 GMT 45.587906 9.230659 5,925 11 280 3840
2019-06-15 13:40:24 GMT 45.565933 9.226305 4,950 356 277 3776
2019-06-15 13:40:17 GMT 45.565189 9.226387 4,900 357 278 3840
2019-06-15 13:40:12 GMT 45.559605 9.227554 4,650 347 276 3328
2019-06-15 13:40:07 GMT 45.552250 9.230576 4,350 342 272 3520
2019-06-15 13:40:01 GMT 45.546570 9.233391 4,200 341 271 3712
2019-06-15 13:39:56 GMT 45.540207 9.236559 3,725 341 267 3008
2019-06-15 13:39:52 GMT 45.534374 9.239368 3,525 341 263 2432
2019-06-15 13:39:43 GMT 45.525341 9.243856 3,225 341 253 2560
2019-06-15 13:39:40 GMT 45.521385 9.245799 3,100 341 248 2176
2019-06-15 13:39:33 GMT 45.514587 9.249215 2,900 341 233 1472
2019-06-15 13:39:28 GMT 45.509857 9.251535 2,775 341 226 896
2019-06-15 13:39:23 GMT 45.504253 9.254307 2,675 341 214 1344
2019-06-15 13:39:11 GMT 45.494202 9.259120 2,450 342 199 1280

Making use of Plane Finder data

You are free to use the raw flight data, aircraft information and images provided in this report for your own purposes provided the data is correctly attributed to Plane Finder. We ask that you please credit Plane Finder and link to planefinder.net in close proximity to the content.

Optionally one of the following logos (no smaller then 150x24px) can be used and must link to planefinder.net

Embedding the Plane Finder map

You are welcome to embed the Plane Finder playback map on your website to offer visitors a more interactive experience. We suggest using the following HTML code:

<iframe src="//planefinder.net/data/report/BA575-G-EUUD-7700-squawk-2019-06-15/map" width="800" height="600" seamless="seamless"></iframe>

Where our data comes from

Plane Finder has a global network of data feeds and antenna radars that receive data broadcast directly from aircraft. The primary technologies used are ADS-B and MLAT. We also show feeds from the FAA and a FLARM glider feed.

Click here to find out more about the Plane Finder network.

How we collect our data